createdAt,value
2018-09-06T00:00:21.048Z,13.70
2018-09-06T00:01:21.046Z,15.50
2018-09-06T00:02:21.043Z,16.30
2018-09-06T00:03:21.044Z,15.50
2018-09-06T00:04:21.040Z,15.80
2018-09-06T00:05:21.045Z,15.60
2018-09-06T00:06:21.043Z,16.70
2018-09-06T00:07:21.046Z,15.50
2018-09-06T00:08:21.044Z,16.30
2018-09-06T00:09:21.038Z,18.30
2018-09-06T00:10:21.038Z,18.20
2018-09-06T00:11:21.042Z,16.90
2018-09-06T00:12:21.041Z,17.60
2018-09-06T00:13:21.035Z,18.30
2018-09-06T00:14:21.035Z,20.00
2018-09-06T00:15:21.035Z,19.60
2018-09-06T00:16:21.035Z,19.00
2018-09-06T00:17:21.037Z,19.00
2018-09-06T00:18:21.037Z,18.50
2018-09-06T00:19:21.037Z,19.90
2018-09-06T00:20:21.036Z,22.50
2018-09-06T00:21:21.030Z,21.30
2018-09-06T00:22:21.030Z,23.40
2018-09-06T00:23:21.030Z,23.00
2018-09-06T00:24:21.030Z,23.20
2018-09-06T00:25:21.037Z,27.00
2018-09-06T00:26:21.036Z,24.90
2018-09-06T00:27:21.027Z,27.80
2018-09-06T00:28:21.028Z,24.40
2018-09-06T00:29:21.030Z,25.70
2018-09-06T00:30:21.030Z,26.40
2018-09-06T00:31:21.029Z,25.30
2018-09-06T00:32:21.028Z,28.30
2018-09-06T00:33:21.027Z,25.60
2018-09-06T00:34:21.021Z,28.80
2018-09-06T00:35:21.021Z,28.70
2018-09-06T00:36:21.020Z,27.40
2018-09-06T00:37:21.025Z,27.50
2018-09-06T00:38:21.024Z,27.00
2018-09-06T00:39:21.024Z,27.40
2018-09-06T00:40:21.024Z,28.50
2018-09-06T00:41:21.023Z,27.80
2018-09-06T00:42:21.017Z,29.70
2018-09-06T00:43:21.022Z,29.10
2018-09-06T00:44:21.022Z,29.80
2018-09-06T00:45:21.014Z,30.80
2018-09-06T00:46:21.013Z,30.50
2018-09-06T00:47:21.014Z,28.10
2018-09-06T00:48:21.012Z,27.10
2018-09-06T00:49:21.014Z,28.60
2018-09-06T00:50:21.014Z,30.10
2018-09-06T00:51:21.015Z,27.80
2018-09-06T00:52:21.013Z,28.20
2018-09-06T00:53:21.007Z,31.50
2018-09-06T00:54:21.007Z,28.50
2018-09-06T00:55:21.006Z,28.80
2018-09-06T00:56:21.006Z,27.00
2018-09-06T00:57:21.009Z,30.90
2018-09-06T00:58:21.012Z,28.00
2018-09-06T00:59:21.004Z,26.80
2018-09-06T01:00:21.001Z,26.50
2018-09-06T01:01:21.006Z,27.80
2018-09-06T01:02:21.004Z,28.50
2018-09-06T01:03:21.003Z,27.60
2018-09-06T01:04:21.006Z,27.10
2018-09-06T01:05:20.997Z,26.80
2018-09-06T01:06:20.999Z,28.10
2018-09-06T01:07:20.995Z,23.80
2018-09-06T01:08:21.000Z,25.70
2018-09-06T01:09:20.998Z,27.60
2018-09-06T01:10:20.998Z,25.80
2018-09-06T01:11:20.998Z,24.20
2018-09-06T01:12:20.997Z,26.80
2018-09-06T01:13:20.990Z,27.90
2018-09-06T01:14:20.989Z,27.80
2018-09-06T01:15:20.993Z,29.10
2018-09-06T01:16:20.993Z,24.40
2018-09-06T01:17:20.988Z,28.20
2018-09-06T01:18:20.986Z,25.80
2018-09-06T01:19:20.986Z,23.30
2018-09-06T01:20:20.986Z,23.90
2018-09-06T01:21:20.989Z,26.60
2018-09-06T01:22:20.989Z,23.20
2018-09-06T01:23:20.988Z,21.60
2018-09-06T01:24:20.988Z,22.40
2018-09-06T01:25:20.980Z,23.00
2018-09-06T01:26:20.980Z,24.40
2018-09-06T01:27:20.981Z,23.30
2018-09-06T01:28:20.977Z,21.80
2018-09-06T01:29:20.981Z,22.20
2018-09-06T01:30:20.980Z,22.10
2018-09-06T01:31:20.973Z,22.50
2018-09-06T01:32:20.975Z,20.60
2018-09-06T01:33:20.977Z,21.50
2018-09-06T01:34:20.977Z,20.20
2018-09-06T01:35:20.977Z,20.80
2018-09-06T01:36:20.974Z,20.20
2018-09-06T01:37:20.969Z,20.70
2018-09-06T01:38:20.979Z,23.30
2018-09-06T01:39:20.972Z,20.80
2018-09-06T01:40:20.966Z,21.10
2018-09-06T01:41:20.969Z,20.10
2018-09-06T01:42:20.969Z,20.30
2018-09-06T01:43:20.968Z,20.20
2018-09-06T01:44:20.971Z,19.30
2018-09-06T01:45:20.961Z,19.60
2018-09-06T01:46:20.959Z,20.90
2018-09-06T01:47:20.963Z,22.40
2018-09-06T01:48:20.962Z,19.80
2018-09-06T01:49:20.957Z,21.80
2018-09-06T01:50:20.955Z,21.70
2018-09-06T01:51:20.959Z,20.30
2018-09-06T01:52:20.957Z,18.90
2018-09-06T01:53:20.966Z,20.80
2018-09-06T01:54:20.957Z,19.50
2018-09-06T01:55:20.955Z,19.30
2018-09-06T01:56:20.955Z,19.40
2018-09-06T01:57:20.949Z,20.20
2018-09-06T01:58:20.948Z,17.80
2018-09-06T01:59:20.947Z,20.10
2018-09-06T02:00:20.950Z,20.10
2018-09-06T02:01:20.950Z,19.20
2018-09-06T02:02:20.949Z,19.40
2018-09-06T02:03:20.944Z,21.50
2018-09-06T02:04:20.943Z,19.30
2018-09-06T02:05:20.946Z,19.30
2018-09-06T02:06:20.945Z,19.50
2018-09-06T02:07:20.944Z,20.00
2018-09-06T02:08:20.942Z,20.70
2018-09-06T02:09:20.936Z,22.90
2018-09-06T02:10:20.942Z,17.90
2018-09-06T02:11:20.936Z,19.60
2018-09-06T02:12:20.935Z,20.90
2018-09-06T02:13:20.938Z,21.00
2018-09-06T02:14:20.936Z,17.70
2018-09-06T02:15:20.936Z,20.50
2018-09-06T02:16:20.936Z,20.50
2018-09-06T02:17:20.929Z,18.30
2018-09-06T02:18:20.929Z,20.80
2018-09-06T02:19:20.933Z,17.60
2018-09-06T02:20:20.933Z,17.70
2018-09-06T02:21:20.925Z,19.40
2018-09-06T02:22:20.924Z,19.80
2018-09-06T02:23:20.924Z,21.50
2018-09-06T02:24:21.001Z,23.60
2018-09-06T02:25:20.926Z,26.70
2018-09-06T02:26:20.925Z,27.00
2018-09-06T02:27:20.925Z,25.80
2018-09-06T02:28:20.924Z,26.80
2018-09-06T02:29:20.918Z,25.80
2018-09-06T02:30:20.918Z,27.30
2018-09-06T02:31:20.918Z,31.70
2018-09-06T02:32:20.916Z,31.40
2018-09-06T02:33:20.921Z,33.70
2018-09-06T02:34:20.918Z,34.70
2018-09-06T02:35:20.912Z,32.60
2018-09-06T02:36:20.911Z,31.50
2018-09-06T02:37:20.915Z,33.10
2018-09-06T02:38:20.914Z,36.60
2018-09-06T02:39:20.912Z,34.40
2018-09-06T02:40:20.911Z,34.90
2018-09-06T02:41:20.908Z,32.40
2018-09-06T02:42:20.905Z,38.10
2018-09-06T02:43:20.904Z,35.70
2018-09-06T02:44:20.902Z,35.70
2018-09-06T02:45:20.908Z,37.40
2018-09-06T02:46:20.903Z,35.40
2018-09-06T02:47:20.906Z,35.50
2018-09-06T02:48:20.902Z,33.40
2018-09-06T02:49:20.894Z,35.10
2018-09-06T02:50:20.894Z,36.60
2018-09-06T02:51:20.898Z,34.80
2018-09-06T02:52:20.897Z,34.80
2018-09-06T02:53:20.890Z,35.00
2018-09-06T02:54:20.889Z,39.20
2018-09-06T02:55:20.891Z,34.20
2018-09-06T02:56:20.886Z,35.80
2018-09-06T02:57:20.889Z,34.70
2018-09-06T02:58:20.887Z,38.40
2018-09-06T02:59:20.905Z,37.30
2018-09-06T03:00:20.886Z,34.00
2018-09-06T03:01:20.878Z,34.80
2018-09-06T03:02:20.879Z,35.40
2018-09-06T03:03:20.878Z,34.50
2018-09-06T03:04:20.875Z,39.60
2018-09-06T03:05:20.879Z,39.20
2018-09-06T03:06:20.876Z,36.50
2018-09-06T03:07:20.871Z,36.60
2018-09-06T03:08:20.870Z,37.50
2018-09-06T03:09:20.872Z,37.70
2018-09-06T03:10:20.871Z,39.60
2018-09-06T03:11:20.870Z,41.50
2018-09-06T03:12:20.870Z,40.80
2018-09-06T03:13:20.862Z,37.80
2018-09-06T03:14:20.861Z,41.60
2018-09-06T03:15:20.870Z,41.60
2018-09-06T03:16:20.860Z,39.20
2018-09-06T03:17:20.863Z,39.50
2018-09-06T03:18:20.861Z,40.40
2018-09-06T03:19:20.860Z,40.60
2018-09-06T03:20:20.857Z,40.50
2018-09-06T03:21:20.855Z,41.80
2018-09-06T03:22:20.855Z,42.90
2018-09-06T03:23:20.857Z,44.70
2018-09-06T03:24:20.854Z,42.00
2018-09-06T03:25:20.846Z,37.30
2018-09-06T03:26:20.846Z,38.80
2018-09-06T03:27:20.844Z,41.60
2018-09-06T03:28:20.843Z,42.80
2018-09-06T03:29:20.846Z,40.50
2018-09-06T03:30:20.845Z,43.10
2018-09-06T03:31:20.844Z,45.50
2018-09-06T03:32:20.843Z,48.60
2018-09-06T03:33:20.835Z,47.30
2018-09-06T03:34:20.833Z,48.60
2018-09-06T03:35:20.838Z,47.20
2018-09-06T03:36:20.832Z,50.80
2018-09-06T03:37:20.833Z,54.90
2018-09-06T03:38:20.831Z,54.30
2018-09-06T03:39:20.826Z,58.70
2018-09-06T03:40:20.824Z,57.90
2018-09-06T03:41:20.826Z,63.60
2018-09-06T03:42:20.823Z,57.40
2018-09-06T03:43:20.823Z,62.30
2018-09-06T03:44:20.821Z,66.30
2018-09-06T03:45:20.813Z,71.80
2018-09-06T03:46:20.811Z,67.50
2018-09-06T03:47:20.813Z,66.50
2018-09-06T03:48:20.808Z,71.90
2018-09-06T03:49:20.813Z,64.40
2018-09-06T03:50:20.808Z,68.20
2018-09-06T03:51:20.805Z,68.50
2018-09-06T03:52:20.806Z,70.90
2018-09-06T03:53:20.808Z,64.70
2018-09-06T03:54:20.801Z,66.30
2018-09-06T03:55:20.797Z,61.60
2018-09-06T03:56:20.811Z,61.70
2018-09-06T03:57:20.787Z,64.00
2018-09-06T03:58:20.790Z,66.70
2018-09-06T03:59:20.784Z,61.90
2018-09-06T04:00:20.787Z,58.20
2018-09-06T04:01:20.784Z,57.10
2018-09-06T04:02:20.795Z,61.00
2018-09-06T04:03:20.775Z,59.00
2018-09-06T04:04:20.774Z,57.00
2018-09-06T04:05:20.777Z,55.50
2018-09-06T04:06:20.780Z,59.10
2018-09-06T04:07:20.771Z,61.20
2018-09-06T04:08:20.768Z,57.10
2018-09-06T04:09:20.760Z,53.60
2018-09-06T04:10:20.759Z,56.20
2018-09-06T04:11:20.761Z,60.50
2018-09-06T04:12:20.758Z,49.90
2018-09-06T04:13:20.750Z,54.60
2018-09-06T04:14:20.748Z,55.80
2018-09-06T04:15:20.746Z,55.10
2018-09-06T04:16:20.745Z,50.40
2018-09-06T04:17:20.747Z,53.50
2018-09-06T04:18:20.752Z,52.80
2018-09-06T04:19:20.742Z,51.10
2018-09-06T04:20:20.741Z,51.80
2018-09-06T04:21:20.733Z,49.60
2018-09-06T04:22:20.730Z,59.50
2018-09-06T04:23:20.727Z,56.90
2018-09-06T04:24:20.799Z,55.10
2018-09-06T04:25:20.726Z,58.40
2018-09-06T04:26:20.723Z,63.20
2018-09-06T04:27:20.741Z,64.10
2018-09-06T04:28:20.715Z,67.40
2018-09-06T04:29:20.717Z,69.50
2018-09-06T04:30:20.714Z,68.10
2018-09-06T04:31:20.712Z,80.10
2018-09-06T04:32:20.710Z,73.10
2018-09-06T04:33:20.700Z,85.00
2018-09-06T04:34:20.699Z,82.90
2018-09-06T04:35:20.747Z,87.50
2018-09-06T04:36:20.695Z,97.40
2018-09-06T04:37:20.696Z,95.70
2018-09-06T04:38:20.693Z,101.70
2018-09-06T04:39:20.689Z,96.30
2018-09-06T04:40:20.686Z,99.10
2018-09-06T04:41:20.679Z,86.80
2018-09-06T04:42:20.676Z,86.50
2018-09-06T04:43:20.678Z,103.10
2018-09-06T04:44:20.676Z,102.40
2018-09-06T04:45:20.670Z,103.70
2018-09-06T04:46:20.666Z,106.60
2018-09-06T04:47:20.663Z,120.60
2018-09-06T04:48:20.661Z,95.00
2018-09-06T04:49:20.660Z,101.60
2018-09-06T04:50:20.658Z,119.80
2018-09-06T04:51:20.657Z,100.80
2018-09-06T04:52:20.653Z,104.70
2018-09-06T04:53:20.644Z,98.30
2018-09-06T04:54:20.642Z,93.50
2018-09-06T04:55:20.678Z,104.70
2018-09-06T04:56:20.637Z,114.80
2018-09-06T04:57:20.637Z,104.10
2018-09-06T04:58:20.692Z,110.20
2018-09-06T04:59:20.627Z,104.50
2018-09-06T05:00:20.625Z,106.10
2018-09-06T05:01:20.625Z,109.00
2018-09-06T05:02:20.622Z,115.60
2018-09-06T05:03:20.629Z,116.50
2018-09-06T05:04:20.655Z,120.40
2018-09-06T05:05:20.609Z,121.30
2018-09-06T05:06:20.642Z,95.50
2018-09-06T05:07:20.606Z,109.70
2018-09-06T05:08:20.599Z,102.00
2018-09-06T05:09:20.601Z,117.40
2018-09-06T05:10:20.600Z,95.90
2018-09-06T05:11:20.596Z,93.60
2018-09-06T05:12:20.597Z,114.20
2018-09-06T05:13:20.585Z,97.80
2018-09-06T05:14:20.581Z,85.90
2018-09-06T05:15:20.584Z,95.20
2018-09-06T05:16:20.582Z,107.30
2018-09-06T05:17:20.573Z,97.10
2018-09-06T05:18:20.571Z,80.30
2018-09-06T05:19:20.568Z,86.20
2018-09-06T05:20:20.564Z,84.60
2018-09-06T05:21:20.565Z,105.30
2018-09-06T05:22:20.563Z,101.20
2018-09-06T05:23:20.560Z,97.70
2018-09-06T05:24:20.558Z,100.20
2018-09-06T05:25:20.549Z,93.00
2018-09-06T05:26:20.547Z,103.70
2018-09-06T05:27:20.546Z,88.10
2018-09-06T05:28:20.541Z,109.90
2018-09-06T05:29:20.544Z,106.30
2018-09-06T05:30:20.541Z,85.00
2018-09-06T05:31:20.537Z,85.30
2018-09-06T05:32:20.531Z,99.30
2018-09-06T05:33:20.532Z,102.40
2018-09-06T05:34:20.530Z,102.20
2018-09-06T05:35:20.534Z,88.40
2018-09-06T05:36:20.583Z,111.70
2018-09-06T05:37:20.516Z,89.60
2018-09-06T05:38:20.513Z,93.30
2018-09-06T05:39:20.511Z,93.30
2018-09-06T05:40:20.508Z,99.00
2018-09-06T05:41:20.509Z,98.80
2018-09-06T05:42:20.509Z,98.70
2018-09-06T05:43:20.506Z,83.90
2018-09-06T05:44:20.506Z,81.20
2018-09-06T05:45:20.498Z,81.00
2018-09-06T05:46:20.491Z,99.50
2018-09-06T05:47:20.497Z,93.70
2018-09-06T05:48:20.491Z,107.30
2018-09-06T05:49:20.484Z,114.60
2018-09-06T05:50:20.480Z,106.40
2018-09-06T05:51:20.477Z,82.30
2018-09-06T05:52:20.475Z,93.70
2018-09-06T05:53:20.514Z,74.20
2018-09-06T05:54:20.473Z,97.20
2018-09-06T05:55:20.471Z,85.20
2018-09-06T05:56:20.469Z,78.00
2018-09-06T05:57:20.460Z,86.00
2018-09-06T05:58:20.460Z,85.30
2018-09-06T05:59:20.456Z,87.40
2018-09-06T06:00:20.461Z,95.90
2018-09-06T06:01:20.454Z,98.60
2018-09-06T06:02:20.452Z,92.90
2018-09-06T06:03:20.445Z,84.90
2018-09-06T06:04:20.443Z,92.60
2018-09-06T06:05:20.474Z,98.90
2018-09-06T06:06:20.440Z,99.20
2018-09-06T06:07:20.438Z,102.50
2018-09-06T06:08:20.435Z,105.70
2018-09-06T06:09:20.427Z,87.60
2018-09-06T06:10:20.424Z,104.40
2018-09-06T06:11:20.423Z,98.40
2018-09-06T06:12:20.419Z,88.70
2018-09-06T06:13:20.421Z,100.40
2018-09-06T06:14:20.417Z,100.70
2018-09-06T06:15:20.414Z,97.60
2018-09-06T06:16:20.411Z,100.60
2018-09-06T06:17:20.405Z,101.20
2018-09-06T06:18:20.401Z,105.70
2018-09-06T06:19:20.403Z,92.90
2018-09-06T06:20:20.401Z,95.90
2018-09-06T06:21:20.391Z,91.70
2018-09-06T06:22:20.390Z,89.50
2018-09-06T06:23:20.393Z,93.10
2018-09-06T06:24:20.385Z,89.10
2018-09-06T06:25:20.386Z,91.40
2018-09-06T06:26:20.383Z,97.90
2018-09-06T06:27:20.380Z,91.40
2018-09-06T06:28:20.378Z,94.00
2018-09-06T06:29:20.373Z,91.40
2018-09-06T06:30:20.369Z,89.40
2018-09-06T06:31:20.364Z,86.40
2018-09-06T06:32:20.449Z,83.30
2018-09-06T06:33:20.362Z,93.30
2018-09-06T06:34:20.358Z,94.90
2018-09-06T06:35:20.361Z,87.50
2018-09-06T06:36:20.348Z,90.30
2018-09-06T06:37:20.353Z,84.00
2018-09-06T06:38:20.346Z,90.90
2018-09-06T06:39:20.342Z,81.30
2018-09-06T06:40:20.339Z,79.90
2018-09-06T06:41:20.332Z,78.80
2018-09-06T06:42:20.332Z,82.30
2018-09-06T06:43:20.326Z,78.60
2018-09-06T06:44:20.323Z,78.00
2018-09-06T06:45:20.327Z,76.60
2018-09-06T06:46:20.322Z,76.50
2018-09-06T06:47:20.319Z,85.00
2018-09-06T06:48:20.316Z,80.90
2018-09-06T06:49:20.306Z,79.90
2018-09-06T06:50:20.321Z,75.70
2018-09-06T06:51:20.308Z,80.10
2018-09-06T06:52:20.303Z,74.00
2018-09-06T06:53:20.295Z,69.10
2018-09-06T06:54:20.295Z,74.50
2018-09-06T06:55:20.289Z,79.30
2018-09-06T06:56:20.288Z,74.80
2018-09-06T06:57:20.290Z,70.20
2018-09-06T06:58:20.287Z,65.90
2018-09-06T06:59:20.283Z,66.10
2018-09-06T07:00:20.279Z,69.00
2018-09-06T07:01:20.271Z,65.30
2018-09-06T07:02:20.270Z,66.30
2018-09-06T07:03:20.265Z,67.80
2018-09-06T07:04:20.351Z,67.00
2018-09-06T07:05:20.265Z,68.70
2018-09-06T07:06:20.262Z,61.70
2018-09-06T07:07:20.255Z,61.10
2018-09-06T07:08:20.252Z,62.40
2018-09-06T07:09:20.253Z,64.70
2018-09-06T07:10:20.249Z,62.00
2018-09-06T07:11:20.248Z,62.50
2018-09-06T07:12:20.245Z,67.60
2018-09-06T07:13:20.237Z,61.10
2018-09-06T07:14:20.235Z,65.40
2018-09-06T07:15:20.231Z,62.10
2018-09-06T07:16:20.229Z,65.30
2018-09-06T07:17:20.230Z,60.00
2018-09-06T07:18:20.403Z,60.90
2018-09-06T07:19:20.228Z,53.80
2018-09-06T07:20:20.223Z,58.20
2018-09-06T07:21:20.216Z,60.90
2018-09-06T07:22:20.212Z,53.90
2018-09-06T07:23:20.218Z,55.70
2018-09-06T07:24:20.213Z,56.50
2018-09-06T07:25:20.205Z,59.50
2018-09-06T07:26:20.201Z,55.50
2018-09-06T07:27:20.199Z,62.50
2018-09-06T07:28:20.199Z,60.60
2018-09-06T07:29:20.197Z,54.60
2018-09-06T07:30:20.235Z,57.40
2018-09-06T07:31:20.192Z,60.30
2018-09-06T07:32:20.189Z,60.70
2018-09-06T07:33:20.183Z,59.70
2018-09-06T07:34:20.179Z,65.40
2018-09-06T07:35:20.271Z,58.60
2018-09-06T07:36:20.175Z,59.00
2018-09-06T07:37:20.177Z,65.10
2018-09-06T07:38:20.174Z,59.30
2018-09-06T07:39:20.167Z,62.90
2018-09-06T07:40:20.164Z,61.10
2018-09-06T07:41:20.170Z,62.50
2018-09-06T07:42:20.163Z,59.70
2018-09-06T07:43:20.159Z,58.90
2018-09-06T07:44:20.157Z,54.60
2018-09-06T07:45:20.148Z,60.30
2018-09-06T07:46:20.146Z,61.10
2018-09-06T07:47:20.144Z,61.10
2018-09-06T07:48:20.191Z,63.80
2018-09-06T07:49:20.142Z,65.50
2018-09-06T07:50:20.140Z,65.10
2018-09-06T07:51:20.138Z,66.30
2018-09-06T07:52:20.193Z,62.80
2018-09-06T07:53:20.128Z,61.00
2018-09-06T07:54:20.125Z,61.00
2018-09-06T07:55:20.128Z,62.20
2018-09-06T07:56:20.126Z,60.80
2018-09-06T07:57:20.118Z,59.30
2018-09-06T07:58:20.116Z,61.20
2018-09-06T07:59:20.112Z,60.50
2018-09-06T08:00:20.110Z,63.30
2018-09-06T08:01:20.112Z,61.30
2018-09-06T08:02:20.109Z,61.30
2018-09-06T08:03:20.108Z,61.40
2018-09-06T08:04:20.105Z,57.90
2018-09-06T08:05:20.103Z,60.80
2018-09-06T08:06:20.096Z,58.30
2018-09-06T08:07:20.093Z,57.80
2018-09-06T08:08:20.091Z,58.40
2018-09-06T08:09:20.094Z,54.00
2018-09-06T08:10:20.092Z,55.80
2018-09-06T08:11:20.084Z,61.40
2018-09-06T08:12:20.082Z,56.90
2018-09-06T08:13:20.088Z,53.90
2018-09-06T08:14:20.081Z,61.50
2018-09-06T08:15:20.080Z,55.90
2018-09-06T08:16:20.077Z,58.70
2018-09-06T08:17:20.071Z,55.50
2018-09-06T08:18:20.069Z,55.50
2018-09-06T08:19:20.070Z,46.80
2018-09-06T08:20:20.065Z,48.40
2018-09-06T08:21:20.068Z,46.10
2018-09-06T08:22:20.065Z,50.10
2018-09-06T08:23:20.064Z,47.90
2018-09-06T08:24:20.073Z,46.70
2018-09-06T08:25:20.054Z,47.10
2018-09-06T08:26:20.053Z,46.80
2018-09-06T08:27:20.058Z,43.40
2018-09-06T08:28:20.057Z,46.70
2018-09-06T08:29:20.049Z,46.60
2018-09-06T08:30:20.049Z,44.00
2018-09-06T08:31:20.076Z,45.00
2018-09-06T08:32:20.043Z,42.90
2018-09-06T08:33:20.045Z,42.20
2018-09-06T08:34:20.043Z,42.90
2018-09-06T08:35:20.044Z,42.30
2018-09-06T08:36:20.043Z,41.60
2018-09-06T08:37:20.039Z,40.30
2018-09-06T08:38:20.033Z,40.60
2018-09-06T08:39:20.037Z,40.80
2018-09-06T08:40:20.032Z,41.30
2018-09-06T08:41:20.038Z,41.60
2018-09-06T08:42:20.034Z,37.40
2018-09-06T08:43:20.028Z,41.60
2018-09-06T08:44:20.026Z,39.00
2018-09-06T08:45:20.052Z,39.80
2018-09-06T08:46:20.027Z,40.20
2018-09-06T08:47:20.027Z,41.40
2018-09-06T08:48:20.025Z,43.00
2018-09-06T08:49:20.019Z,43.20
2018-09-06T08:50:20.019Z,39.90
2018-09-06T08:51:20.016Z,43.20
2018-09-06T08:52:20.020Z,42.30
2018-09-06T08:53:20.019Z,42.00
2018-09-06T08:54:20.016Z,44.30
2018-09-06T08:55:20.017Z,45.40
2018-09-06T08:56:20.016Z,42.50
2018-09-06T08:57:20.010Z,45.70
2018-09-06T08:58:20.040Z,44.70
2018-09-06T08:59:20.014Z,45.10
2018-09-06T09:00:20.012Z,45.00
2018-09-06T09:01:20.003Z,45.00
2018-09-06T09:02:20.125Z,48.30
2018-09-06T09:03:20.072Z,35.30
2018-09-06T09:04:20.006Z,26.80
2018-09-06T09:05:20.002Z,31.30
2018-09-06T09:06:20.000Z,25.80
2018-09-06T09:07:19.999Z,24.90
2018-09-06T09:08:20.030Z,25.20
2018-09-06T09:09:19.996Z,27.00
2018-09-06T09:10:19.991Z,38.10
2018-09-06T09:11:19.989Z,28.80
2018-09-06T09:12:20.002Z,34.30
2018-09-06T09:13:20.026Z,30.60
2018-09-06T09:14:19.990Z,33.50
2018-09-06T09:15:19.985Z,38.80
2018-09-06T09:16:19.984Z,36.80
2018-09-06T09:17:19.989Z,39.60
2018-09-06T09:18:19.991Z,36.00
2018-09-06T09:19:19.984Z,37.50
2018-09-06T09:20:19.982Z,38.50
2018-09-06T09:21:19.977Z,41.80
2018-09-06T09:22:19.985Z,37.00
2018-09-06T09:23:19.976Z,37.40
2018-09-06T09:24:19.973Z,42.80
2018-09-06T09:25:19.980Z,40.30
2018-09-06T09:26:19.977Z,40.40
2018-09-06T09:27:19.975Z,39.50
2018-09-06T09:28:19.973Z,42.40
2018-09-06T09:29:19.974Z,39.90
2018-09-06T09:30:19.966Z,38.70
2018-09-06T09:31:19.969Z,41.50
2018-09-06T09:32:19.969Z,41.50
2018-09-06T09:33:19.966Z,47.20
2018-09-06T09:34:19.962Z,45.10
2018-09-06T09:35:19.962Z,45.80
2018-09-06T09:36:19.960Z,41.20
2018-09-06T09:37:19.965Z,40.70
2018-09-06T09:38:19.964Z,46.40
2018-09-06T09:39:19.962Z,42.20
2018-09-06T09:40:19.962Z,40.20
2018-09-06T09:41:19.956Z,42.10
2018-09-06T09:42:19.954Z,42.90
2018-09-06T09:43:20.003Z,40.70
2018-09-06T09:44:19.953Z,41.00
2018-09-06T09:45:19.956Z,40.80
2018-09-06T09:47:41.498Z,42.90
2018-09-06T09:48:41.490Z,45.00
2018-09-06T09:49:41.558Z,42.60
2018-09-06T09:51:20.787Z,44.00
2018-09-06T09:52:20.779Z,50.80
2018-09-06T09:53:20.778Z,42.60
2018-09-06T09:54:20.776Z,49.60
2018-09-06T09:55:20.778Z,49.90
2018-09-06T09:56:20.778Z,46.70
2018-09-06T09:57:20.777Z,48.70
2018-09-06T09:58:20.772Z,47.60
2018-09-06T09:59:20.771Z,48.10
2018-09-06T10:00:20.774Z,50.40
2018-09-06T10:01:20.774Z,48.80
2018-09-06T10:02:20.772Z,50.00
2018-09-06T10:03:20.772Z,50.80
2018-09-06T10:04:20.766Z,48.30
2018-09-06T10:05:20.764Z,52.60
2018-09-06T10:06:20.766Z,48.10
2018-09-06T10:07:20.761Z,53.30
2018-09-06T10:08:20.766Z,53.50
2018-09-06T10:09:20.764Z,52.90
2018-09-06T10:10:20.761Z,54.20
2018-09-06T10:11:20.761Z,53.10
2018-09-06T10:12:20.756Z,49.30
2018-09-06T10:13:20.753Z,56.20
2018-09-06T10:14:20.755Z,52.30
2018-09-06T10:15:20.756Z,53.60
2018-09-06T10:16:20.750Z,53.60
2018-09-06T10:17:20.749Z,53.80
2018-09-06T10:18:20.746Z,58.10
2018-09-06T10:19:20.744Z,55.00
2018-09-06T10:20:20.748Z,53.10
2018-09-06T10:21:20.746Z,57.90
2018-09-06T10:22:20.744Z,59.10
2018-09-06T10:23:20.743Z,62.60
2018-09-06T10:24:20.738Z,60.90
2018-09-06T10:25:20.734Z,52.00
2018-09-06T10:26:20.744Z,55.20
2018-09-06T10:27:20.732Z,64.00
2018-09-06T10:28:20.734Z,66.30
2018-09-06T10:29:20.732Z,69.40
2018-09-06T10:30:20.729Z,69.00
2018-09-06T10:31:20.724Z,72.00
2018-09-06T10:32:20.728Z,73.60
2018-09-06T10:33:20.726Z,70.70
2018-09-06T10:34:20.725Z,74.70
2018-09-06T10:35:20.742Z,71.90
2018-09-06T10:36:20.716Z,79.50
2018-09-06T10:37:20.713Z,77.40
2018-09-06T10:38:20.718Z,82.20
2018-09-06T10:39:20.783Z,74.50
2018-09-06T10:40:20.714Z,70.30
2018-09-06T10:41:20.711Z,83.80
2018-09-06T10:42:20.710Z,87.60
2018-09-06T10:43:20.706Z,85.40
2018-09-06T10:44:20.699Z,85.50
2018-09-06T10:45:20.698Z,79.20
2018-09-06T10:46:20.698Z,81.10
2018-09-06T10:47:20.697Z,78.00
2018-09-06T10:48:20.690Z,80.70
2018-09-06T10:49:20.688Z,83.50
2018-09-06T10:50:20.688Z,68.40
2018-09-06T10:51:20.684Z,67.10
2018-09-06T10:52:20.687Z,64.00
2018-09-06T10:53:20.688Z,62.50
2018-09-06T10:54:20.681Z,62.50
2018-09-06T10:55:20.680Z,62.60
2018-09-06T10:56:20.675Z,68.30
2018-09-06T10:57:20.671Z,62.70
2018-09-06T10:58:20.673Z,63.10
2018-09-06T10:59:20.667Z,61.40
2018-09-06T11:00:20.672Z,61.50
2018-09-06T11:01:20.668Z,58.90
2018-09-06T11:02:20.661Z,59.10
2018-09-06T11:03:20.659Z,54.20
2018-09-06T11:04:20.664Z,52.30
2018-09-06T11:05:20.660Z,54.00
2018-09-06T11:06:20.656Z,51.50
2018-09-06T11:11:20.643Z,53.70
2018-09-06T11:12:20.645Z,52.80
2018-09-06T11:13:20.643Z,54.40
2018-09-06T11:14:20.650Z,58.30
2018-09-06T11:15:20.642Z,56.60
2018-09-06T11:16:20.633Z,44.10
2018-09-06T11:17:20.630Z,55.90
2018-09-06T11:18:20.633Z,54.20
2018-09-06T11:19:20.630Z,52.80
2018-09-06T11:20:20.625Z,61.50
2018-09-06T11:21:20.780Z,55.40
2018-09-06T11:22:20.756Z,52.50
2018-09-06T11:23:20.618Z,53.80
2018-09-06T11:24:20.620Z,47.60
2018-09-06T11:25:20.624Z,59.30
2018-09-06T11:26:20.616Z,53.50
2018-09-06T11:27:20.645Z,53.40
2018-09-06T11:28:20.608Z,51.50
2018-09-06T11:29:20.606Z,50.30
2018-09-06T11:30:20.605Z,57.70
2018-09-06T11:31:20.603Z,53.50
2018-09-06T11:32:20.606Z,50.90
2018-09-06T11:33:20.646Z,53.80
2018-09-06T11:34:20.597Z,55.10
2018-09-06T11:35:20.602Z,52.30
2018-09-06T11:36:20.599Z,54.60
2018-09-06T11:37:20.597Z,48.80
2018-09-06T11:38:20.597Z,51.30
2018-09-06T11:39:20.595Z,57.30
2018-09-06T11:40:20.593Z,49.20
2018-09-06T11:41:20.586Z,47.60
2018-09-06T11:42:20.586Z,45.50
2018-09-06T11:43:20.585Z,50.10
2018-09-06T11:44:20.591Z,38.50
2018-09-06T11:45:20.585Z,43.40
2018-09-06T11:46:20.586Z,45.30
2018-09-06T11:47:20.616Z,44.70
2018-09-06T11:48:20.581Z,42.10
2018-09-06T11:49:20.581Z,43.00
2018-09-06T11:50:20.583Z,43.00
2018-09-06T11:51:20.583Z,42.10
2018-09-06T11:52:20.602Z,42.50
2018-09-06T11:53:20.574Z,42.60
2018-09-06T11:54:20.573Z,43.40
2018-09-06T11:55:20.574Z,43.40
2018-09-06T11:59:20.598Z,47.30
2018-09-06T12:00:20.568Z,49.30
2018-09-06T12:01:20.567Z,50.90
2018-09-06T12:02:20.567Z,49.40
2018-09-06T12:03:20.565Z,52.20
2018-09-06T12:04:20.568Z,50.80
2018-09-06T12:05:20.566Z,53.80
2018-09-06T12:06:20.561Z,50.60
2018-09-06T12:07:20.560Z,53.90
2018-09-06T12:08:20.563Z,49.10
2018-09-06T12:09:20.561Z,53.60
2018-09-06T12:10:20.561Z,54.80
2018-09-06T12:11:20.560Z,54.60
2018-09-06T12:12:20.556Z,55.50
2018-09-06T12:13:20.553Z,57.60
2018-09-06T12:14:20.552Z,53.10
2018-09-06T12:15:20.553Z,53.50
2018-09-06T12:16:20.555Z,55.20
2018-09-06T12:17:20.555Z,53.20
2018-09-06T12:18:20.551Z,55.50
2018-09-06T12:19:20.604Z,50.90
2018-09-06T12:20:20.545Z,54.80
2018-09-06T12:21:20.542Z,52.40
2018-09-06T12:22:20.546Z,52.60
2018-09-06T12:23:20.545Z,52.70
2018-09-06T12:24:20.540Z,56.30
2018-09-06T12:25:20.612Z,51.50
2018-09-06T12:26:20.539Z,51.60
2018-09-06T12:27:20.538Z,55.00
2018-09-06T12:28:20.544Z,53.70
2018-09-06T12:29:20.542Z,53.10
2018-09-06T12:30:20.539Z,53.30
2018-09-06T12:31:20.538Z,52.80
2018-09-06T12:32:20.564Z,53.30
2018-09-06T12:33:20.767Z,54.60
2018-09-06T12:34:20.530Z,54.70
2018-09-06T12:35:20.529Z,53.10
2018-09-06T12:36:20.533Z,55.30
2018-09-06T12:37:20.533Z,50.90
2018-09-06T12:38:20.527Z,51.10
2018-09-06T12:39:20.526Z,49.00
2018-09-06T12:40:20.535Z,51.00
2018-09-06T12:41:20.533Z,51.40
2018-09-06T12:42:20.531Z,47.90
2018-09-06T12:43:20.532Z,47.20
2018-09-06T12:44:20.527Z,52.40
2018-09-06T12:45:20.525Z,49.30
2018-09-06T12:46:20.527Z,51.60
2018-09-06T12:47:20.527Z,54.10
2018-09-06T12:48:20.531Z,46.40
2018-09-06T12:49:20.530Z,53.70
2018-09-06T12:50:20.529Z,55.00
2018-09-06T12:51:20.528Z,56.40
2018-09-06T12:52:20.524Z,57.30
2018-09-06T12:53:20.524Z,52.80
2018-09-06T12:54:20.528Z,57.20
2018-09-06T12:55:20.528Z,53.00
2018-09-06T12:56:20.523Z,54.20
2018-09-06T12:57:20.523Z,53.50
2018-09-06T12:58:20.524Z,56.20
2018-09-06T12:59:20.523Z,52.60
2018-09-06T13:00:20.530Z,51.20